Time;durP1;ratioP1;P1;durP2;ratioP2;P2;SDS_P1;SDS_P2;PMS_P1;PMS_P2;Temp;Humidity;BMP_temperature;BMP_pressure;BME280_temperature;BME280_humidity;BME280_pressure;Samples;Min_cycle;Max_cycle;Signal;HPM_P1;HPM_P2
2021/08/20 00:01:02;;;;;;;911.85;814.97;;;;;;;;;;5050343;28;20031;-78
2021/08/20 00:03:28;;;;;;;911.67;815.00;;;;;;;;;;5068211;28;20081;-79
2021/08/20 00:05:54;;;;;;;909.85;813.10;;;;;;;;;;5066838;28;20041;-80
2021/08/20 00:08:21;;;;;;;906.28;809.72;;;;;;;;;;5061890;28;20024;-79
2021/08/20 00:10:49;;;;;;;904.80;808.28;;;;;;;;;;5052156;28;20492;-79
2021/08/20 00:13:15;;;;;;;910.60;813.90;;;;;;;;;;5050703;28;20365;-78
2021/08/20 00:15:41;;;;;;;906.58;807.50;;;;;;;;;;5052938;28;20028;-78
2021/08/20 00:18:07;;;;;;;907.85;810.88;;;;;;;;;;5050458;28;20481;-79
2021/08/20 00:20:33;;;;;;;904.45;807.83;;;;;;;;;;5050874;28;20183;-79
2021/08/20 00:22:59;;;;;;;907.13;810.33;;;;;;;;;;5045602;28;20027;-78
2021/08/20 00:25:25;;;;;;;899.80;803.28;;;;;;;;;;5047497;28;20037;-79
2021/08/20 00:27:51;;;;;;;903.83;807.10;;;;;;;;;;5048130;28;20035;-78
2021/08/20 00:30:17;;;;;;;893.78;797.60;;;;;;;;;;5046599;28;20036;-79
2021/08/20 00:32:43;;;;;;;897.47;801.08;;;;;;;;;;5042933;28;20035;-78
2021/08/20 00:35:09;;;;;;;897.05;800.83;;;;;;;;;;5057414;28;20459;-79
2021/08/20 00:37:35;;;;;;;890.58;794.42;;;;;;;;;;5037591;28;20052;-80
2021/08/20 00:40:03;;;;;;;897.60;800.80;;;;;;;;;;5047440;28;20649;-79
2021/08/20 00:42:29;;;;;;;896.38;799.97;;;;;;;;;;5047107;28;20025;-78
2021/08/20 00:44:55;;;;;;;890.78;794.50;;;;;;;;;;5050721;28;20029;-79
2021/08/20 00:47:21;;;;;;;890.95;794.60;;;;;;;;;;5050201;28;20032;-78
2021/08/20 00:49:47;;;;;;;885.00;789.20;;;;;;;;;;5044099;28;20104;-79
2021/08/20 00:52:13;;;;;;;884.92;788.75;;;;;;;;;;5045182;28;20075;-79
2021/08/20 00:54:40;;;;;;;886.15;790.25;;;;;;;;;;5048615;28;20033;-77
2021/08/20 00:57:06;;;;;;;888.00;791.92;;;;;;;;;;5045810;28;20128;-79
2021/08/20 00:59:32;;;;;;;890.53;794.35;;;;;;;;;;5063150;28;20020;-78
2021/08/20 01:01:58;;;;;;;896.95;800.65;;;;;;;;;;5049799;28;20029;-77
2021/08/20 01:04:24;;;;;;;893.28;797.25;;;;;;;;;;5047883;28;20373;-77
2021/08/20 01:06:53;;;;;;;894.28;798.33;;;;;;;;;;5049019;28;20055;-78
2021/08/20 01:09:20;;;;;;;899.42;803.10;;;;;;;;;;5062137;28;20044;-78
2021/08/20 01:11:46;;;;;;;898.50;802.28;;;;;;;;;;5052176;28;20371;-79
2021/08/20 01:14:16;;;;;;;902.47;806.08;;;;;;;;;;5067783;28;20111;-79
2021/08/20 01:16:42;;;;;;;889.25;793.67;;;;;;;;;;5056464;28;20020;-78
2021/08/20 01:19:08;;;;;;;896.90;800.80;;;;;;;;;;5043258;28;20048;-77
2021/08/20 01:21:34;;;;;;;889.70;793.70;;;;;;;;;;5043297;28;20026;-78
2021/08/20 01:24:01;;;;;;;897.53;801.30;;;;;;;;;;5043338;28;20421;-79
2021/08/20 01:26:28;;;;;;;892.65;796.58;;;;;;;;;;5031553;28;20586;-79
2021/08/20 01:28:54;;;;;;;898.97;802.92;;;;;;;;;;5046392;28;20021;-78
2021/08/20 01:31:20;;;;;;;904.85;808.38;;;;;;;;;;5045103;28;20035;-78
2021/08/20 01:33:46;;;;;;;898.95;802.67;;;;;;;;;;5047803;28;20047;-78
2021/08/20 01:36:12;;;;;;;894.50;798.20;;;;;;;;;;5058943;28;20471;-78
2021/08/20 01:38:55;;;;;;;890.83;794.83;;;;;;;;;;5046527;28;20057;-79
2021/08/20 01:41:23;;;;;;;892.58;796.13;;;;;;;;;;5045830;28;20496;-78
2021/08/20 01:43:49;;;;;;;897.47;801.58;;;;;;;;;;5046478;28;20031;-78
2021/08/20 01:46:16;;;;;;;898.70;802.65;;;;;;;;;;5047861;28;20036;-77
2021/08/20 01:48:46;;;;;;;891.05;795.20;;;;;;;;;;5045010;28;20786;-79
2021/08/20 01:51:13;;;;;;;885.22;789.42;;;;;;;;;;5043055;28;20025;-78
2021/08/20 01:53:39;;;;;;;1081.30;799.13;;;;;;;;;;5043590;28;20025;-78
2021/08/20 01:56:05;;;;;;;883.00;787.05;;;;;;;;;;5046413;28;20028;-79
2021/08/20 01:58:31;;;;;;;888.22;792.15;;;;;;;;;;5046011;28;20029;-78
2021/08/20 02:00:57;;;;;;;888.50;792.55;;;;;;;;;;5052640;28;20040;-78
2021/08/20 02:03:23;;;;;;;891.25;795.08;;;;;;;;;;5045848;28;20056;-78
2021/08/20 02:05:49;;;;;;;891.97;795.80;;;;;;;;;;5046458;28;20033;-81
2021/08/20 02:08:15;;;;;;;897.53;801.05;;;;;;;;;;5045593;28;20021;-78
2021/08/20 02:10:41;;;;;;;893.92;797.92;;;;;;;;;;5046251;28;20048;-80
2021/08/20 02:13:07;;;;;;;894.55;798.65;;;;;;;;;;5050111;28;20514;-79
2021/08/20 02:15:34;;;;;;;900.42;803.80;;;;;;;;;;5047327;28;20421;-77
2021/08/20 02:18:00;;;;;;;894.28;797.88;;;;;;;;;;5044933;28;20017;-80
2021/08/20 02:20:26;;;;;;;892.58;796.42;;;;;;;;;;5045636;28;20039;-78
2021/08/20 02:22:52;;;;;;;885.72;789.78;;;;;;;;;;5043600;28;20033;-79
2021/08/20 02:25:18;;;;;;;888.05;792.22;;;;;;;;;;5042757;28;20022;-79
2021/08/20 02:27:44;;;;;;;1023.55;737.50;;;;;;;;;;5046095;28;20025;-78
2021/08/20 02:30:10;;;;;;;879.65;783.83;;;;;;;;;;5064357;28;20591;-78
2021/08/20 02:32:36;;;;;;;1654.15;846.28;;;;;;;;;;5045661;28;20547;-79
2021/08/20 02:35:02;;;;;;;877.17;781.47;;;;;;;;;;5051809;28;20125;-78
2021/08/20 02:37:28;;;;;;;876.25;780.55;;;;;;;;;;5047429;28;20021;-79
2021/08/20 02:39:54;;;;;;;871.30;775.80;;;;;;;;;;5046000;28;20021;-78
2021/08/20 02:42:20;;;;;;;870.03;774.72;;;;;;;;;;5029561;28;20057;-79
2021/08/20 02:44:46;;;;;;;870.03;774.45;;;;;;;;;;5078586;28;20495;-78
2021/08/20 02:47:12;;;;;;;869.25;773.92;;;;;;;;;;5057786;28;20032;-79
2021/08/20 02:49:38;;;;;;;875.47;779.78;;;;;;;;;;5044740;28;20033;-78
2021/08/20 02:52:04;;;;;;;873.25;777.80;;;;;;;;;;5057815;28;20653;-79
2021/08/20 02:54:30;;;;;;;879.97;784.10;;;;;;;;;;5059794;28;20033;-79
2021/08/20 02:56:56;;;;;;;877.63;782.05;;;;;;;;;;5065874;28;20028;-79
2021/08/20 02:59:22;;;;;;;876.63;780.78;;;;;;;;;;5065211;28;20082;-78
2021/08/20 03:01:48;;;;;;;879.50;783.70;;;;;;;;;;5049397;28;20328;-78
2021/08/20 03:04:16;;;;;;;875.78;780.28;;;;;;;;;;5045015;28;20205;-79
2021/08/20 03:06:44;;;;;;;876.08;780.38;;;;;;;;;;5048189;28;20366;-79
2021/08/20 03:09:13;;;;;;;872.47;776.95;;;;;;;;;;5045033;28;20032;-78
2021/08/20 03:11:40;;;;;;;863.08;767.88;;;;;;;;;;5047010;28;20448;-79
2021/08/20 03:14:06;;;;;;;869.17;774.08;;;;;;;;;;5046196;28;20029;-78
2021/08/20 03:16:32;;;;;;;876.67;781.17;;;;;;;;;;5046691;28;20020;-79
2021/08/20 03:18:58;;;;;;;875.75;780.17;;;;;;;;;;5045512;28;20023;-79
2021/08/20 03:21:24;;;;;;;880.13;784.25;;;;;;;;;;5035415;28;20037;-81
2021/08/20 03:23:50;;;;;;;873.10;777.50;;;;;;;;;;5052031;28;20662;-79
2021/08/20 03:26:16;;;;;;;878.55;782.47;;;;;;;;;;5045955;28;20086;-78
2021/08/20 03:28:42;;;;;;;883.55;787.75;;;;;;;;;;5044411;28;20052;-79
2021/08/20 03:31:08;;;;;;;1009.58;791.28;;;;;;;;;;5045537;28;20025;-79
2021/08/20 03:33:34;;;;;;;875.85;780.45;;;;;;;;;;5047347;28;20395;-79
2021/08/20 03:35:59;;;;;;;1627.18;904.67;;;;;;;;;;5047584;28;20025;-79
2021/08/20 03:38:25;;;;;;;875.92;780.30;;;;;;;;;;5045383;28;20032;-80
2021/08/20 03:40:51;;;;;;;874.95;779.15;;;;;;;;;;5044960;28;20017;-80
2021/08/20 03:43:17;;;;;;;885.95;790.17;;;;;;;;;;5032786;28;20017;-79
2021/08/20 03:45:45;;;;;;;893.03;796.97;;;;;;;;;;5051038;28;20183;-80
2021/08/20 03:48:11;;;;;;;888.97;793.17;;;;;;;;;;5045797;28;20688;-81
2021/08/20 03:50:37;;;;;;;888.13;792.30;;;;;;;;;;5058733;28;20024;-79
2021/08/20 03:53:03;;;;;;;890.25;794.10;;;;;;;;;;5046664;28;20585;-80
2021/08/20 03:55:29;;;;;;;880.72;785.33;;;;;;;;;;5047326;28;20028;-79
2021/08/20 03:57:55;;;;;;;1009.72;777.17;;;;;;;;;;5047460;28;20473;-79
2021/08/20 04:00:21;;;;;;;896.47;800.40;;;;;;;;;;5049316;28;20104;-80
2021/08/20 04:02:47;;;;;;;890.25;794.38;;;;;;;;;;5047801;28;20034;-79
2021/08/20 04:05:13;;;;;;;871.88;777.22;;;;;;;;;;5048036;28;20032;-78
2021/08/20 04:07:39;;;;;;;886.78;791.08;;;;;;;;;;5047792;28;20456;-80
2021/08/20 04:10:05;;;;;;;889.30;793.00;;;;;;;;;;5049610;28;20412;-79
2021/08/20 04:12:31;;;;;;;880.97;785.42;;;;;;;;;;5050630;28;20111;-78
2021/08/20 04:14:57;;;;;;;889.78;793.42;;;;;;;;;;5064306;28;20021;-76
2021/08/20 04:17:23;;;;;;;852.67;752.55;;;;;;;;;;5049062;28;20029;-76
2021/08/20 04:19:49;;;;;;;886.38;790.55;;;;;;;;;;5059264;28;20572;-76
2021/08/20 04:22:15;;;;;;;891.50;795.60;;;;;;;;;;5059197;28;20523;-76
2021/08/20 04:24:42;;;;;;;896.88;800.60;;;;;;;;;;5043480;28;20510;-74
2021/08/20 04:27:08;;;;;;;892.65;796.47;;;;;;;;;;5036027;28;20561;-74
2021/08/20 04:29:34;;;;;;;895.47;799.50;;;;;;;;;;5050799;28;20028;-74
2021/08/20 04:32:00;;;;;;;892.88;796.97;;;;;;;;;;5046766;28;20063;-75
2021/08/20 04:34:26;;;;;;;891.25;795.17;;;;;;;;;;5048555;28;20433;-75
2021/08/20 04:36:52;;;;;;;886.38;790.67;;;;;;;;;;5056767;28;20107;-76
2021/08/20 04:39:18;;;;;;;890.17;794.10;;;;;;;;;;5049378;28;20029;-75
2021/08/20 04:41:44;;;;;;;879.72;784.13;;;;;;;;;;5047142;28;20482;-76
2021/08/20 04:44:10;;;;;;;882.28;786.20;;;;;;;;;;5048452;28;20075;-75
2021/08/20 04:46:39;;;;;;;890.92;794.65;;;;;;;;;;5056089;28;20041;-77
2021/08/20 04:49:05;;;;;;;885.17;789.45;;;;;;;;;;5053069;28;20040;-75
2021/08/20 04:51:31;;;;;;;886.58;790.67;;;;;;;;;;5064299;28;20056;-76
2021/08/20 04:53:57;;;;;;;882.72;787.05;;;;;;;;;;5050171;28;20024;-75
2021/08/20 04:56:23;;;;;;;876.75;781.35;;;;;;;;;;5048051;28;20037;-75
2021/08/20 04:58:49;;;;;;;886.45;790.60;;;;;;;;;;5050031;28;20067;-76
2021/08/20 05:01:15;;;;;;;888.10;792.33;;;;;;;;;;5046846;28;20028;-75
2021/08/20 05:03:42;;;;;;;886.55;790.67;;;;;;;;;;5050740;28;20028;-76
2021/08/20 05:06:08;;;;;;;886.25;790.55;;;;;;;;;;5060276;28;20021;-77
2021/08/20 05:08:37;;;;;;;894.67;798.45;;;;;;;;;;5049322;28;20066;-78
2021/08/20 05:11:03;;;;;;;894.50;798.45;;;;;;;;;;5054381;28;20041;-78
2021/08/20 05:13:29;;;;;;;895.33;799.33;;;;;;;;;;5046959;28;20435;-76
2021/08/20 05:15:59;;;;;;;899.92;803.72;;;;;;;;;;5055462;28;20025;-76
2021/08/20 05:18:26;;;;;;;900.72;804.45;;;;;;;;;;5048134;28;20029;-77
2021/08/20 05:20:52;;;;;;;901.15;805.00;;;;;;;;;;5042591;28;20438;-78
2021/08/20 05:23:18;;;;;;;895.72;799.75;;;;;;;;;;5047707;28;20052;-77
2021/08/20 05:25:45;;;;;;;891.92;795.97;;;;;;;;;;5051043;28;20523;-78
2021/08/20 05:28:13;;;;;;;898.65;802.33;;;;;;;;;;5065432;28;20032;-76
2021/08/20 05:30:39;;;;;;;890.00;794.17;;;;;;;;;;5043186;28;20029;-78
2021/08/20 05:33:06;;;;;;;891.88;795.45;;;;;;;;;;5048311;28;20029;-77
2021/08/20 05:35:34;;;;;;;896.15;800.08;;;;;;;;;;5049622;28;20051;-77
2021/08/20 05:38:02;;;;;;;888.30;792.47;;;;;;;;;;5047793;28;20036;-76
2021/08/20 05:40:28;;;;;;;891.97;796.20;;;;;;;;;;5052059;28;20025;-77
2021/08/20 05:42:54;;;;;;;898.10;801.97;;;;;;;;;;5056470;28;20403;-77
2021/08/20 05:45:20;;;;;;;899.50;803.13;;;;;;;;;;5063168;28;20039;-77
2021/08/20 05:47:46;;;;;;;898.05;802.22;;;;;;;;;;5048581;28;20544;-77
2021/08/20 05:50:13;;;;;;;892.70;797.03;;;;;;;;;;5047549;28;20535;-77
2021/08/20 05:52:39;;;;;;;902.03;805.90;;;;;;;;;;5044528;28;20025;-77
2021/08/20 05:55:06;;;;;;;899.97;803.92;;;;;;;;;;5054782;28;20029;-77
2021/08/20 05:57:32;;;;;;;902.10;806.15;;;;;;;;;;5052914;28;20029;-78
2021/08/20 05:59:58;;;;;;;905.65;809.42;;;;;;;;;;5054525;28;20036;-77
2021/08/20 06:02:24;;;;;;;910.78;814.47;;;;;;;;;;5052304;28;20028;-78
2021/08/20 06:04:50;;;;;;;910.53;814.40;;;;;;;;;;5047234;28;20408;-77
2021/08/20 06:07:16;;;;;;;904.88;808.90;;;;;;;;;;5049605;28;20029;-77
2021/08/20 06:09:42;;;;;;;912.00;815.88;;;;;;;;;;5044733;28;20052;-77
2021/08/20 06:12:08;;;;;;;918.20;821.58;;;;;;;;;;5046322;28;20424;-77
2021/08/20 06:14:34;;;;;;;912.58;816.25;;;;;;;;;;5048335;28;20013;-76
2021/08/20 06:17:00;;;;;;;914.10;817.85;;;;;;;;;;5044508;28;20031;-76
2021/08/20 06:19:26;;;;;;;913.50;817.20;;;;;;;;;;5033687;28;20021;-77
2021/08/20 06:21:54;;;;;;;913.17;817.03;;;;;;;;;;5044834;28;20024;-76
2021/08/20 06:24:20;;;;;;;918.67;822.20;;;;;;;;;;5049895;28;20021;-76
2021/08/20 06:26:47;;;;;;;921.35;824.83;;;;;;;;;;5045669;28;20120;-76
2021/08/20 06:29:15;;;;;;;920.20;823.78;;;;;;;;;;5052586;28;20048;-77
2021/08/20 06:31:41;;;;;;;926.95;830.25;;;;;;;;;;5047113;28;20423;-76
2021/08/20 06:34:07;;;;;;;927.95;830.97;;;;;;;;;;5046258;28;20376;-77
2021/08/20 06:36:33;;;;;;;921.75;825.13;;;;;;;;;;5045631;28;20013;-77
2021/08/20 06:38:59;;;;;;;925.53;829.00;;;;;;;;;;5047225;28;20020;-76
2021/08/20 06:41:25;;;;;;;927.10;830.35;;;;;;;;;;5046720;28;20434;-77
2021/08/20 06:43:51;;;;;;;924.63;827.72;;;;;;;;;;5045209;28;20036;-77
2021/08/20 06:46:17;;;;;;;930.80;833.97;;;;;;;;;;5042938;28;20103;-77
2021/08/20 06:48:42;;;;;;;935.38;838.60;;;;;;;;;;5045209;28;20021;-76
2021/08/20 06:51:12;;;;;;;937.50;840.45;;;;;;;;;;5045140;28;20083;-77
2021/08/20 06:53:38;;;;;;;936.08;839.05;;;;;;;;;;5049334;28;20028;-76
2021/08/20 06:56:05;;;;;;;934.22;837.33;;;;;;;;;;5052856;28;20689;-77
2021/08/20 06:58:31;;;;;;;936.55;839.55;;;;;;;;;;5050962;28;20074;-77
2021/08/20 07:00:57;;;;;;;938.17;840.90;;;;;;;;;;5051407;28;20029;-76
2021/08/20 07:03:23;;;;;;;936.15;839.13;;;;;;;;;;5051489;28;20609;-78
2021/08/20 07:05:49;;;;;;;937.30;840.30;;;;;;;;;;5053077;28;20029;-76
2021/08/20 07:08:15;;;;;;;943.42;846.00;;;;;;;;;;5056309;28;20484;-77
2021/08/20 07:10:41;;;;;;;959.72;862.00;;;;;;;;;;5051301;28;20500;-76
2021/08/20 07:13:08;;;;;;;957.17;859.58;;;;;;;;;;5038083;28;20459;-78
2021/08/20 07:15:34;;;;;;;965.80;867.78;;;;;;;;;;5044644;28;20019;-77
2021/08/20 07:18:00;;;;;;;962.22;864.17;;;;;;;;;;5026499;28;20067;-78
2021/08/20 07:20:26;;;;;;;972.10;873.65;;;;;;;;;;5044911;28;20025;-78
2021/08/20 07:22:52;;;;;;;968.33;870.47;;;;;;;;;;5046601;28;20041;-77
2021/08/20 07:25:18;;;;;;;972.20;873.92;;;;;;;;;;5048779;28;20568;-77
2021/08/20 07:27:44;;;;;;;973.00;875.00;;;;;;;;;;5048925;28;20602;-77
2021/08/20 07:30:11;;;;;;;967.50;869.53;;;;;;;;;;5050394;28;20192;-77
2021/08/20 07:32:37;;;;;;;970.75;872.75;;;;;;;;;;5048260;28;20372;-77
2021/08/20 07:35:03;;;;;;;976.00;877.60;;;;;;;;;;5048815;28;20058;-76
2021/08/20 07:37:29;;;;;;;973.95;875.05;;;;;;;;;;5048201;28;20055;-78
2021/08/20 07:39:55;;;;;;;977.33;878.75;;;;;;;;;;5048543;28;20025;-78
2021/08/20 07:42:21;;;;;;;974.08;875.95;;;;;;;;;;5049813;28;20233;-77
2021/08/20 07:44:47;;;;;;;983.75;885.15;;;;;;;;;;5048973;28;20439;-77
2021/08/20 07:47:13;;;;;;;976.45;877.70;;;;;;;;;;5048708;28;20037;-77
2021/08/20 07:49:39;;;;;;;973.58;875.38;;;;;;;;;;5048246;28;20029;-76
2021/08/20 07:52:05;;;;;;;978.60;880.05;;;;;;;;;;5046216;28;20029;-77
2021/08/20 07:54:31;;;;;;;980.00;881.25;;;;;;;;;;5048111;28;20050;-76
2021/08/20 07:56:57;;;;;;;983.03;884.63;;;;;;;;;;5049788;28;20187;-77
2021/08/20 07:59:23;;;;;;;979.85;881.30;;;;;;;;;;5048328;28;20575;-77
2021/08/20 08:01:49;;;;;;;975.33;876.92;;;;;;;;;;5047734;28;20405;-76
2021/08/20 08:04:15;;;;;;;986.50;888.00;;;;;;;;;;5064343;28;20043;-77
2021/08/20 08:06:41;;;;;;;989.15;890.53;;;;;;;;;;5068816;28;20526;-78
2021/08/20 08:09:07;;;;;;;984.03;885.70;;;;;;;;;;5069365;28;20028;-77
2021/08/20 08:11:33;;;;;;;982.38;884.00;;;;;;;;;;5055433;28;20037;-78
2021/08/20 08:14:03;;;;;;;991.85;893.13;;;;;;;;;;5049354;28;20017;-77
2021/08/20 08:16:30;;;;;;;991.95;893.13;;;;;;;;;;5041597;28;20020;-77
2021/08/20 08:18:56;;;;;;;1002.83;903.30;;;;;;;;;;5044769;28;20032;-77
2021/08/20 08:21:22;;;;;;;998.40;899.35;;;;;;;;;;5042675;28;20029;-77
2021/08/20 08:23:48;;;;;;;995.22;896.58;;;;;;;;;;5036762;28;20033;-77
2021/08/20 08:26:14;;;;;;;1001.25;902.15;;;;;;;;;;5049192;28;20029;-76
2021/08/20 08:28:40;;;;;;;1009.03;909.75;;;;;;;;;;5049502;28;20017;-78
2021/08/20 08:31:06;;;;;;;1004.25;905.22;;;;;;;;;;5048355;28;20017;-78
2021/08/20 08:33:32;;;;;;;1020.28;920.58;;;;;;;;;;5048200;28;20033;-78
2021/08/20 08:35:58;;;;;;;1032.05;931.75;;;;;;;;;;5049131;28;20048;-78
2021/08/20 08:38:24;;;;;;;1030.10;930.08;;;;;;;;;;5047571;28;20435;-78
2021/08/20 08:40:50;;;;;;;1028.47;928.50;;;;;;;;;;5047463;28;20025;-78
2021/08/20 08:43:16;;;;;;;1032.05;931.85;;;;;;;;;;5049180;28;20505;-79
2021/08/20 08:45:42;;;;;;;1039.72;939.13;;;;;;;;;;5047645;28;20153;-80
2021/08/20 08:48:09;;;;;;;1039.15;938.67;;;;;;;;;;5049211;28;20071;-80
2021/08/20 08:50:36;;;;;;;1054.65;953.45;;;;;;;;;;5049025;28;20328;-78
2021/08/20 08:53:02;;;;;;;1056.95;955.75;;;;;;;;;;5046552;28;20111;-79
2021/08/20 08:55:28;;;;;;;1056.13;955.10;;;;;;;;;;5047807;28;20189;-78
2021/08/20 08:57:54;;;;;;;1075.85;973.85;;;;;;;;;;5049233;28;20013;-80
2021/08/20 09:00:34;;;;;;;1071.53;969.80;;;;;;;;;;5049135;28;20479;-79
2021/08/20 09:03:00;;;;;;;1066.97;965.35;;;;;;;;;;5047304;28;20037;-83
2021/08/20 09:05:26;;;;;;;1075.80;973.97;;;;;;;;;;5048986;28;20376;-78
2021/08/20 09:07:54;;;;;;;1088.90;986.28;;;;;;;;;;5049025;28;20033;-80
2021/08/20 09:10:21;;;;;;;1076.32;974.28;;;;;;;;;;5067066;28;20079;-80
2021/08/20 09:12:50;;;;;;;1083.38;981.33;;;;;;;;;;5067261;28;20021;-79
2021/08/20 09:15:17;;;;;;;1092.88;990.42;;;;;;;;;;5068710;28;20535;-79
2021/08/20 09:17:47;;;;;;;1097.55;994.50;;;;;;;;;;5045874;28;20368;-78
2021/08/20 09:20:30;;;;;;;1097.40;994.78;;;;;;;;;;5045002;28;20544;-78
2021/08/20 09:22:59;;;;;;;1101.30;996.85;;;;;;;;;;5046767;28;20103;-80
2021/08/20 09:25:29;;;;;;;1104.85;998.58;;;;;;;;;;5066937;28;20436;-79
2021/08/20 09:28:22;;;;;;;1118.95;999.90;;;;;;;;;;5067295;28;20042;-78
2021/08/20 09:30:57;;;;;;;1118.05;999.90;;;;;;;;;;5064393;28;20040;-79
2021/08/20 09:33:24;;;;;;;1110.38;999.80;;;;;;;;;;5049973;28;20383;-78
2021/08/20 09:36:10;;;;;;;1122.35;999.90;;;;;;;;;;5047984;28;20017;-80
2021/08/20 09:38:40;;;;;;;1116.88;999.90;;;;;;;;;;5043331;28;20085;-77
2021/08/20 09:41:14;;;;;;;1121.13;999.90;;;;;;;;;;5028171;28;20036;-80
2021/08/20 09:43:41;;;;;;;1124.38;999.90;;;;;;;;;;5026989;28;20109;-81
2021/08/20 09:46:12;;;;;;;1121.57;999.90;;;;;;;;;;5028035;28;20021;-82
2021/08/20 09:48:48;;;;;;;1104.07;998.25;;;;;;;;;;5026885;28;20026;-81
2021/08/20 09:51:33;;;;;;;1105.00;998.28;;;;;;;;;;5025754;28;20030;-82
2021/08/20 09:54:00;;;;;;;1109.15;999.80;;;;;;;;;;5045524;28;20128;-81
2021/08/20 09:56:26;;;;;;;1120.95;999.90;;;;;;;;;;5066419;28;20021;-79
2021/08/20 09:58:58;;;;;;;1135.65;999.90;;;;;;;;;;5066576;28;20024;-83
2021/08/20 10:01:25;;;;;;;1123.78;999.90;;;;;;;;;;5065895;28;20025;-81
2021/08/20 10:03:51;;;;;;;1140.68;999.90;;;;;;;;;;5066648;28;20141;-82
2021/08/20 10:06:17;;;;;;;1137.78;999.90;;;;;;;;;;5067853;28;20499;-81
2021/08/20 10:08:44;;;;;;;1146.38;999.90;;;;;;;;;;5067939;28;20028;-80
2021/08/20 10:11:10;;;;;;;1142.32;999.90;;;;;;;;;;5048165;28;20102;-81
2021/08/20 10:13:36;;;;;;;1141.90;999.90;;;;;;;;;;5046054;28;20078;-80
2021/08/20 10:16:04;;;;;;;1131.10;999.90;;;;;;;;;;5046224;28;20132;-79
2021/08/20 10:18:32;;;;;;;1134.32;999.90;;;;;;;;;;5045868;28;20029;-81
2021/08/20 10:20:59;;;;;;;1136.65;999.90;;;;;;;;;;5046262;28;20027;-81
2021/08/20 10:23:25;;;;;;;1149.28;999.90;;;;;;;;;;5043973;28;20052;-79
2021/08/20 10:25:56;;;;;;;1156.78;999.90;;;;;;;;;;5046311;28;20550;-80
2021/08/20 10:28:22;;;;;;;1169.65;999.90;;;;;;;;;;5047315;28;20078;-80
2021/08/20 10:30:49;;;;;;;1177.80;999.90;;;;;;;;;;5045917;28;20028;-81
2021/08/20 10:33:15;;;;;;;1177.88;999.90;;;;;;;;;;5045534;28;20036;-81
2021/08/20 10:35:48;;;;;;;1191.28;999.90;;;;;;;;;;5045481;28;20025;-80
2021/08/20 10:38:23;;;;;;;1198.38;999.90;;;;;;;;;;5045142;28;20021;-80
2021/08/20 10:41:08;;;;;;;1233.93;999.90;;;;;;;;;;5046378;28;20027;-79
2021/08/20 10:43:50;;;;;;;1282.00;999.90;;;;;;;;;;5045423;28;20020;-80
2021/08/20 10:46:34;;;;;;;1275.18;999.90;;;;;;;;;;5045477;28;20033;-81
2021/08/20 10:49:21;;;;;;;1270.43;999.90;;;;;;;;;;5045387;28;20029;-79
2021/08/20 10:51:55;;;;;;;1245.75;999.90;;;;;;;;;;5044025;28;20567;-80
2021/08/20 10:54:24;;;;;;;1236.63;999.90;;;;;;;;;;5049459;28;20446;-80
2021/08/20 10:56:50;;;;;;;1211.43;999.90;;;;;;;;;;5052720;28;20024;-79
2021/08/20 10:59:35;;;;;;;1202.93;999.90;;;;;;;;;;5049790;28;20091;-81
2021/08/20 11:02:19;;;;;;;1191.53;999.90;;;;;;;;;;5049032;28;20024;-78
2021/08/20 11:05:01;;;;;;;1181.70;999.90;;;;;;;;;;5049478;28;20028;-79
2021/08/20 11:07:33;;;;;;;1181.35;999.90;;;;;;;;;;5049045;28;20025;-78
2021/08/20 11:10:00;;;;;;;1190.30;999.90;;;;;;;;;;5049363;28;20047;-77
2021/08/20 11:12:47;;;;;;;1188.30;999.90;;;;;;;;;;5049308;28;20412;-76
2021/08/20 11:15:23;;;;;;;1188.78;999.90;;;;;;;;;;5049533;28;20024;-76
2021/08/20 11:17:56;;;;;;;1194.20;999.90;;;;;;;;;;5049274;28;20464;-78
2021/08/20 11:20:28;;;;;;;1186.28;999.90;;;;;;;;;;5050954;28;20029;-77
2021/08/20 11:23:06;;;;;;;1190.50;999.90;;;;;;;;;;5048624;28;20036;-76
2021/08/20 11:25:35;;;;;;;1183.20;999.90;;;;;;;;;;5050534;28;20021;-79
2021/08/20 11:28:03;;;;;;;1180.68;999.90;;;;;;;;;;5049008;28;20025;-80
2021/08/20 11:30:29;;;;;;;1179.13;999.90;;;;;;;;;;5049144;28;20476;-79
2021/08/20 11:33:08;;;;;;;1190.47;999.90;;;;;;;;;;5048386;28;20052;-78
2021/08/20 11:35:34;;;;;;;1183.22;999.90;;;;;;;;;;5049373;28;20090;-81
2021/08/20 11:38:00;;;;;;;1185.20;999.90;;;;;;;;;;5048702;28;20029;-80
2021/08/20 11:40:26;;;;;;;1193.15;999.90;;;;;;;;;;5048701;28;20059;-81
2021/08/20 11:43:06;;;;;;;1190.63;999.90;;;;;;;;;;5048861;28;20052;-81
2021/08/20 11:45:32;;;;;;;1202.03;999.90;;;;;;;;;;5048814;28;20056;-80
2021/08/20 11:47:59;;;;;;;1198.88;999.90;;;;;;;;;;5049128;28;20033;-81
2021/08/20 11:50:26;;;;;;;1202.28;999.90;;;;;;;;;;5048919;28;20425;-79
2021/08/20 11:52:52;;;;;;;1189.53;999.90;;;;;;;;;;5046698;28;20106;-80
2021/08/20 11:55:21;;;;;;;1186.80;999.90;;;;;;;;;;5050284;28;20013;-80
2021/08/20 11:57:47;;;;;;;1182.63;999.90;;;;;;;;;;5058333;28;20028;-79
2021/08/20 12:00:14;;;;;;;1182.97;999.90;;;;;;;;;;5068399;28;20383;-80
2021/08/20 12:02:43;;;;;;;1177.53;999.90;;;;;;;;;;5068055;28;20430;-79
2021/08/20 12:05:12;;;;;;;1176.63;999.90;;;;;;;;;;5066761;28;20032;-81
2021/08/20 12:07:38;;;;;;;1173.25;999.90;;;;;;;;;;5043457;28;20025;-82
2021/08/20 12:10:05;;;;;;;1169.65;999.90;;;;;;;;;;5045933;28;20408;-80
2021/08/20 12:12:33;;;;;;;1163.13;999.90;;;;;;;;;;5049386;28;20025;-81
2021/08/20 12:15:00;;;;;;;1167.72;999.90;;;;;;;;;;5048464;28;20025;-82
2021/08/20 12:17:30;;;;;;;1159.85;999.90;;;;;;;;;;5044728;28;20029;-81
2021/08/20 12:19:56;;;;;;;;;;;;;;;;;;5028730;28;20045;-77
2021/08/20 12:22:32;;;;;;;1150.88;999.90;;;;;;;;;;5025969;28;19905;-79
2021/08/20 12:24:58;;;;;;;1150.40;999.90;;;;;;;;;;5029881;28;20030;-79
2021/08/20 12:27:26;;;;;;;1157.30;999.90;;;;;;;;;;5048674;28;20123;-79
2021/08/20 12:29:58;;;;;;;1170.38;999.90;;;;;;;;;;5047911;28;20412;-78
2021/08/20 12:32:24;;;;;;;1176.40;999.90;;;;;;;;;;5047652;28;20477;-80
2021/08/20 12:35:01;;;;;;;1175.22;999.90;;;;;;;;;;5049550;28;20386;-77
2021/08/20 12:37:27;;;;;;;1183.65;999.90;;;;;;;;;;5047932;28;20021;-78
2021/08/20 12:40:07;;;;;;;1206.45;999.90;;;;;;;;;;5047851;28;20111;-78
2021/08/20 12:42:42;;;;;;;1230.95;999.90;;;;;;;;;;5049271;28;20035;-79
2021/08/20 12:45:18;;;;;;;1256.05;999.90;;;;;;;;;;5047592;28;20078;-78
2021/08/20 12:47:45;;;;;;;1302.35;999.90;;;;;;;;;;5048296;28;20036;-79
2021/08/20 12:50:13;;;;;;;1363.85;999.90;;;;;;;;;;5047976;28;20121;-80
2021/08/20 12:52:39;;;;;;;1397.13;999.90;;;;;;;;;;5045466;28;20124;-80
2021/08/20 12:55:23;;;;;;;1398.95;999.90;;;;;;;;;;5049201;28;20021;-79
2021/08/20 12:57:49;;;;;;;1358.25;999.90;;;;;;;;;;5049623;28;20033;-79
2021/08/20 13:00:17;;;;;;;1367.57;999.90;;;;;;;;;;5047669;28;20025;-78
2021/08/20 13:02:43;;;;;;;1357.13;999.90;;;;;;;;;;5047225;28;20148;-79
2021/08/20 13:05:09;;;;;;;1331.95;999.90;;;;;;;;;;5047340;28;20112;-77
2021/08/20 13:07:35;;;;;;;1321.47;999.90;;;;;;;;;;5049483;28;20040;-78
2021/08/20 13:10:01;;;;;;;1304.30;999.90;;;;;;;;;;5046745;28;20056;-80
2021/08/20 13:12:27;;;;;;;1291.55;999.90;;;;;;;;;;5047148;28;20071;-80
2021/08/20 13:14:56;;;;;;;1277.40;999.90;;;;;;;;;;5047204;28;20519;-78
2021/08/20 13:17:22;;;;;;;1264.03;999.90;;;;;;;;;;5047269;28;20243;-80
2021/08/20 13:19:50;;;;;;;1253.03;999.90;;;;;;;;;;5046743;28;20048;-80
2021/08/20 13:22:16;;;;;;;1237.82;999.90;;;;;;;;;;5044964;28;20067;-80
2021/08/20 13:24:42;;;;;;;1232.28;999.90;;;;;;;;;;5048961;28;20025;-80
2021/08/20 13:27:09;;;;;;;1212.32;999.90;;;;;;;;;;5068323;28;20175;-79
2021/08/20 13:29:35;;;;;;;1201.93;999.90;;;;;;;;;;5066728;28;20523;-80
2021/08/20 13:32:01;;;;;;;1202.63;999.90;;;;;;;;;;5066656;28;20043;-80
2021/08/20 13:34:27;;;;;;;1207.72;999.90;;;;;;;;;;5056085;28;20035;-80
2021/08/20 13:36:53;;;;;;;1211.72;999.90;;;;;;;;;;5046764;28;20021;-81
2021/08/20 13:39:20;;;;;;;1208.63;999.90;;;;;;;;;;5049037;28;20040;-79
2021/08/20 13:41:46;;;;;;;1219.75;999.90;;;;;;;;;;5047924;28;20494;-79
2021/08/20 13:44:12;;;;;;;1226.60;999.90;;;;;;;;;;5046768;28;20029;-81
2021/08/20 13:46:38;;;;;;;1223.78;999.90;;;;;;;;;;5047155;28;20032;-80
2021/08/20 13:49:05;;;;;;;1220.43;999.90;;;;;;;;;;5047899;28;20040;-76
2021/08/20 13:51:31;;;;;;;1220.88;999.90;;;;;;;;;;5046687;28;20029;-81